sensor_id;sensor_type;location;lat;lon;timestamp;P1;durP1;ratioP1;P2;durP2;ratioP2
12707;SDS011;6418;50.824;4.718;2022-07-05T00:01:14;9.20;;;4.30;;
12707;SDS011;6418;50.824;4.718;2022-07-05T00:03:41;7.00;;;4.00;;
12707;SDS011;6418;50.824;4.718;2022-07-05T00:06:08;5.27;;;4.10;;
12707;SDS011;6418;50.824;4.718;2022-07-05T00:08:35;7.23;;;4.30;;
12707;SDS011;6418;50.824;4.718;2022-07-05T00:11:03;6.17;;;4.20;;
12707;SDS011;6418;50.824;4.718;2022-07-05T00:13:30;5.10;;;4.20;;
12707;SDS011;6418;50.824;4.718;2022-07-05T00:15:57;6.90;;;4.30;;
12707;SDS011;6418;50.824;4.718;2022-07-05T00:18:26;7.97;;;4.43;;
12707;SDS011;6418;50.824;4.718;2022-07-05T00:20:52;9.50;;;4.60;;
12707;SDS011;6418;50.824;4.718;2022-07-05T00:23:19;6.30;;;4.30;;
12707;SDS011;6418;50.824;4.718;2022-07-05T00:25:46;7.13;;;4.37;;
12707;SDS011;6418;50.824;4.718;2022-07-05T00:28:13;8.77;;;4.60;;
12707;SDS011;6418;50.824;4.718;2022-07-05T00:30:40;6.87;;;4.53;;
12707;SDS011;6418;50.824;4.718;2022-07-05T00:33:07;6.00;;;4.30;;
12707;SDS011;6418;50.824;4.718;2022-07-05T00:35:35;6.33;;;4.33;;
12707;SDS011;6418;50.824;4.718;2022-07-05T00:38:02;8.00;;;4.60;;
12707;SDS011;6418;50.824;4.718;2022-07-05T00:40:29;11.90;;;5.00;;
12707;SDS011;6418;50.824;4.718;2022-07-05T00:42:56;9.70;;;4.50;;
12707;SDS011;6418;50.824;4.718;2022-07-05T00:45:23;6.00;;;4.27;;
12707;SDS011;6418;50.824;4.718;2022-07-05T00:47:50;6.67;;;4.63;;
12707;SDS011;6418;50.824;4.718;2022-07-05T00:50:17;8.53;;;4.73;;
12707;SDS011;6418;50.824;4.718;2022-07-05T00:52:45;7.23;;;4.43;;
12707;SDS011;6418;50.824;4.718;2022-07-05T00:55:12;6.77;;;4.53;;
12707;SDS011;6418;50.824;4.718;2022-07-05T00:57:39;7.80;;;4.20;;
12707;SDS011;6418;50.824;4.718;2022-07-05T01:00:06;5.80;;;4.23;;
12707;SDS011;6418;50.824;4.718;2022-07-05T01:02:34;7.37;;;4.40;;
12707;SDS011;6418;50.824;4.718;2022-07-05T01:05:01;6.63;;;4.50;;
12707;SDS011;6418;50.824;4.718;2022-07-05T01:07:30;7.40;;;4.60;;
12707;SDS011;6418;50.824;4.718;2022-07-05T01:09:58;7.37;;;4.50;;
12707;SDS011;6418;50.824;4.718;2022-07-05T01:12:25;9.70;;;4.37;;
12707;SDS011;6418;50.824;4.718;2022-07-05T01:14:52;7.53;;;4.40;;
12707;SDS011;6418;50.824;4.718;2022-07-05T01:17:21;6.73;;;4.40;;
12707;SDS011;6418;50.824;4.718;2022-07-05T01:19:49;7.47;;;4.30;;
12707;SDS011;6418;50.824;4.718;2022-07-05T01:22:17;6.77;;;4.33;;
12707;SDS011;6418;50.824;4.718;2022-07-05T01:24:47;8.23;;;4.63;;
12707;SDS011;6418;50.824;4.718;2022-07-05T01:27:15;7.60;;;4.93;;
12707;SDS011;6418;50.824;4.718;2022-07-05T01:29:43;9.63;;;4.73;;
12707;SDS011;6418;50.824;4.718;2022-07-05T01:32:10;7.60;;;4.70;;
12707;SDS011;6418;50.824;4.718;2022-07-05T01:34:37;7.57;;;5.00;;
12707;SDS011;6418;50.824;4.718;2022-07-05T01:37:05;6.80;;;4.53;;
12707;SDS011;6418;50.824;4.718;2022-07-05T01:39:32;7.90;;;4.90;;
12707;SDS011;6418;50.824;4.718;2022-07-05T01:42:01;7.87;;;4.53;;
12707;SDS011;6418;50.824;4.718;2022-07-05T01:44:29;8.90;;;4.70;;
12707;SDS011;6418;50.824;4.718;2022-07-05T01:46:58;6.70;;;4.80;;
12707;SDS011;6418;50.824;4.718;2022-07-05T01:49:30;11.03;;;4.90;;
12707;SDS011;6418;50.824;4.718;2022-07-05T01:52:02;7.37;;;4.53;;
12707;SDS011;6418;50.824;4.718;2022-07-05T01:54:32;7.73;;;4.93;;
12707;SDS011;6418;50.824;4.718;2022-07-05T01:57:01;8.30;;;5.00;;
12707;SDS011;6418;50.824;4.718;2022-07-05T01:59:29;7.67;;;4.90;;
12707;SDS011;6418;50.824;4.718;2022-07-05T02:01:58;7.60;;;4.87;;
12707;SDS011;6418;50.824;4.718;2022-07-05T02:04:25;8.40;;;4.70;;
12707;SDS011;6418;50.824;4.718;2022-07-05T02:06:53;8.93;;;5.00;;
12707;SDS011;6418;50.824;4.718;2022-07-05T02:09:20;7.77;;;4.70;;
12707;SDS011;6418;50.824;4.718;2022-07-05T02:11:47;9.07;;;4.90;;
12707;SDS011;6418;50.824;4.718;2022-07-05T02:14:15;8.07;;;4.93;;
12707;SDS011;6418;50.824;4.718;2022-07-05T02:16:43;9.57;;;5.40;;
12707;SDS011;6418;50.824;4.718;2022-07-05T02:19:10;9.83;;;4.83;;
12707;SDS011;6418;50.824;4.718;2022-07-05T02:21:36;9.17;;;5.20;;
12707;SDS011;6418;50.824;4.718;2022-07-05T02:24:04;8.87;;;5.07;;
12707;SDS011;6418;50.824;4.718;2022-07-05T02:26:31;10.70;;;5.50;;
12707;SDS011;6418;50.824;4.718;2022-07-05T02:28:58;8.77;;;4.90;;
12707;SDS011;6418;50.824;4.718;2022-07-05T02:31:27;9.23;;;5.53;;
12707;SDS011;6418;50.824;4.718;2022-07-05T02:33:55;9.60;;;5.03;;
12707;SDS011;6418;50.824;4.718;2022-07-05T02:36:22;7.70;;;5.10;;
12707;SDS011;6418;50.824;4.718;2022-07-05T02:38:48;9.30;;;5.00;;
12707;SDS011;6418;50.824;4.718;2022-07-05T02:41:16;8.93;;;5.33;;
12707;SDS011;6418;50.824;4.718;2022-07-05T02:43:43;7.73;;;4.90;;
12707;SDS011;6418;50.824;4.718;2022-07-05T02:46:10;7.87;;;4.87;;
12707;SDS011;6418;50.824;4.718;2022-07-05T02:48:38;7.73;;;4.90;;
12707;SDS011;6418;50.824;4.718;2022-07-05T02:51:05;8.13;;;4.73;;
12707;SDS011;6418;50.824;4.718;2022-07-05T02:53:32;7.67;;;4.87;;
12707;SDS011;6418;50.824;4.718;2022-07-05T02:56:00;8.53;;;4.83;;
12707;SDS011;6418;50.824;4.718;2022-07-05T02:58:27;8.90;;;5.47;;
12707;SDS011;6418;50.824;4.718;2022-07-05T03:00:54;8.07;;;4.90;;
12707;SDS011;6418;50.824;4.718;2022-07-05T03:03:21;9.80;;;5.03;;
12707;SDS011;6418;50.824;4.718;2022-07-05T03:05:50;8.87;;;5.23;;
12707;SDS011;6418;50.824;4.718;2022-07-05T03:08:17;9.80;;;5.30;;
12707;SDS011;6418;50.824;4.718;2022-07-05T03:10:44;9.53;;;4.93;;
12707;SDS011;6418;50.824;4.718;2022-07-05T03:13:11;10.13;;;5.30;;
12707;SDS011;6418;50.824;4.718;2022-07-05T03:15:38;12.50;;;5.30;;
12707;SDS011;6418;50.824;4.718;2022-07-05T03:18:05;11.97;;;5.57;;
12707;SDS011;6418;50.824;4.718;2022-07-05T03:20:32;9.67;;;5.23;;
12707;SDS011;6418;50.824;4.718;2022-07-05T03:23:00;10.63;;;5.40;;
12707;SDS011;6418;50.824;4.718;2022-07-05T03:25:27;8.70;;;5.20;;
12707;SDS011;6418;50.824;4.718;2022-07-05T03:27:54;10.63;;;5.20;;
12707;SDS011;6418;50.824;4.718;2022-07-05T03:30:21;8.67;;;5.10;;
12707;SDS011;6418;50.824;4.718;2022-07-05T03:32:48;8.97;;;5.30;;
12707;SDS011;6418;50.824;4.718;2022-07-05T03:35:15;8.10;;;5.00;;
12707;SDS011;6418;50.824;4.718;2022-07-05T03:37:42;9.40;;;5.40;;
12707;SDS011;6418;50.824;4.718;2022-07-05T03:40:10;10.67;;;5.40;;
12707;SDS011;6418;50.824;4.718;2022-07-05T03:42:37;8.50;;;5.43;;
12707;SDS011;6418;50.824;4.718;2022-07-05T03:45:05;7.93;;;4.90;;
12707;SDS011;6418;50.824;4.718;2022-07-05T03:47:32;10.33;;;5.33;;
12707;SDS011;6418;50.824;4.718;2022-07-05T03:49:59;13.13;;;5.40;;
12707;SDS011;6418;50.824;4.718;2022-07-05T03:52:26;8.00;;;5.00;;
12707;SDS011;6418;50.824;4.718;2022-07-05T03:54:53;9.40;;;5.33;;
12707;SDS011;6418;50.824;4.718;2022-07-05T03:57:21;10.73;;;5.40;;
12707;SDS011;6418;50.824;4.718;2022-07-05T03:59:48;10.50;;;5.60;;
12707;SDS011;6418;50.824;4.718;2022-07-05T04:02:15;9.80;;;5.70;;
12707;SDS011;6418;50.824;4.718;2022-07-05T04:04:42;9.43;;;5.10;;
12707;SDS011;6418;50.824;4.718;2022-07-05T04:07:09;7.40;;;4.90;;
12707;SDS011;6418;50.824;4.718;2022-07-05T04:09:36;10.53;;;5.37;;
12707;SDS011;6418;50.824;4.718;2022-07-05T04:12:03;9.90;;;5.50;;
12707;SDS011;6418;50.824;4.718;2022-07-05T04:14:33;11.43;;;5.30;;
12707;SDS011;6418;50.824;4.718;2022-07-05T04:16:59;11.70;;;5.27;;
12707;SDS011;6418;50.824;4.718;2022-07-05T04:19:27;11.17;;;5.40;;
12707;SDS011;6418;50.824;4.718;2022-07-05T04:21:53;10.40;;;5.33;;
12707;SDS011;6418;50.824;4.718;2022-07-05T04:24:20;10.50;;;5.50;;
12707;SDS011;6418;50.824;4.718;2022-07-05T04:26:47;7.67;;;5.23;;
12707;SDS011;6418;50.824;4.718;2022-07-05T04:29:14;10.63;;;5.77;;
12707;SDS011;6418;50.824;4.718;2022-07-05T04:31:43;10.23;;;5.70;;
12707;SDS011;6418;50.824;4.718;2022-07-05T04:34:10;8.70;;;5.30;;
12707;SDS011;6418;50.824;4.718;2022-07-05T04:36:37;10.30;;;5.67;;
12707;SDS011;6418;50.824;4.718;2022-07-05T04:39:05;10.23;;;5.60;;
12707;SDS011;6418;50.824;4.718;2022-07-05T04:41:32;10.83;;;5.67;;
12707;SDS011;6418;50.824;4.718;2022-07-05T04:44:00;9.27;;;5.70;;
12707;SDS011;6418;50.824;4.718;2022-07-05T04:46:27;10.23;;;5.50;;
12707;SDS011;6418;50.824;4.718;2022-07-05T04:48:55;7.47;;;5.37;;
12707;SDS011;6418;50.824;4.718;2022-07-05T04:51:22;10.37;;;5.97;;
12707;SDS011;6418;50.824;4.718;2022-07-05T04:53:49;10.83;;;5.90;;
12707;SDS011;6418;50.824;4.718;2022-07-05T04:56:16;11.57;;;5.90;;
12707;SDS011;6418;50.824;4.718;2022-07-05T04:58:43;12.33;;;6.03;;
12707;SDS011;6418;50.824;4.718;2022-07-05T05:01:10;10.30;;;5.93;;
12707;SDS011;6418;50.824;4.718;2022-07-05T05:03:37;10.80;;;6.10;;
12707;SDS011;6418;50.824;4.718;2022-07-05T05:06:05;10.10;;;6.07;;
12707;SDS011;6418;50.824;4.718;2022-07-05T05:08:33;10.70;;;5.77;;
12707;SDS011;6418;50.824;4.718;2022-07-05T05:11:00;8.97;;;5.70;;
12707;SDS011;6418;50.824;4.718;2022-07-05T05:13:27;13.43;;;6.83;;
12707;SDS011;6418;50.824;4.718;2022-07-05T05:15:53;12.27;;;6.40;;
12707;SDS011;6418;50.824;4.718;2022-07-05T05:18:20;13.33;;;6.50;;
12707;SDS011;6418;50.824;4.718;2022-07-05T05:20:52;11.20;;;6.50;;
12707;SDS011;6418;50.824;4.718;2022-07-05T05:23:20;12.03;;;6.63;;
12707;SDS011;6418;50.824;4.718;2022-07-05T05:25:48;11.63;;;6.43;;
12707;SDS011;6418;50.824;4.718;2022-07-05T05:28:15;11.97;;;6.53;;
12707;SDS011;6418;50.824;4.718;2022-07-05T05:30:42;13.83;;;6.60;;
12707;SDS011;6418;50.824;4.718;2022-07-05T05:33:08;12.87;;;7.10;;
12707;SDS011;6418;50.824;4.718;2022-07-05T05:35:35;12.70;;;6.63;;
12707;SDS011;6418;50.824;4.718;2022-07-05T05:38:02;13.43;;;6.90;;
12707;SDS011;6418;50.824;4.718;2022-07-05T05:40:31;12.10;;;6.37;;
12707;SDS011;6418;50.824;4.718;2022-07-05T05:42:59;17.30;;;7.00;;
12707;SDS011;6418;50.824;4.718;2022-07-05T05:45:26;15.63;;;6.93;;
12707;SDS011;6418;50.824;4.718;2022-07-05T05:47:53;19.33;;;7.47;;
12707;SDS011;6418;50.824;4.718;2022-07-05T05:50:23;15.60;;;7.80;;
12707;SDS011;6418;50.824;4.718;2022-07-05T05:52:50;20.03;;;7.80;;
12707;SDS011;6418;50.824;4.718;2022-07-05T05:55:18;27.30;;;8.53;;
12707;SDS011;6418;50.824;4.718;2022-07-05T05:57:47;16.73;;;8.90;;
12707;SDS011;6418;50.824;4.718;2022-07-05T06:00:15;18.13;;;7.90;;
12707;SDS011;6418;50.824;4.718;2022-07-05T06:02:43;19.00;;;8.47;;
12707;SDS011;6418;50.824;4.718;2022-07-05T06:05:10;19.67;;;8.93;;
12707;SDS011;6418;50.824;4.718;2022-07-05T06:07:45;14.70;;;8.47;;
12707;SDS011;6418;50.824;4.718;2022-07-05T06:10:17;16.90;;;8.10;;
12707;SDS011;6418;50.824;4.718;2022-07-05T06:12:46;15.37;;;8.10;;
12707;SDS011;6418;50.824;4.718;2022-07-05T06:15:14;19.93;;;7.87;;
12707;SDS011;6418;50.824;4.718;2022-07-05T06:17:41;14.93;;;6.90;;
12707;SDS011;6418;50.824;4.718;2022-07-05T06:20:09;14.90;;;7.17;;
12707;SDS011;6418;50.824;4.718;2022-07-05T06:22:38;16.37;;;7.30;;
12707;SDS011;6418;50.824;4.718;2022-07-05T06:25:06;12.90;;;6.67;;
12707;SDS011;6418;50.824;4.718;2022-07-05T06:27:37;11.20;;;6.60;;
12707;SDS011;6418;50.824;4.718;2022-07-05T06:30:07;12.40;;;6.47;;
12707;SDS011;6418;50.824;4.718;2022-07-05T06:32:35;12.70;;;6.20;;
12707;SDS011;6418;50.824;4.718;2022-07-05T06:35:03;15.77;;;6.43;;
12707;SDS011;6418;50.824;4.718;2022-07-05T06:37:41;13.30;;;6.10;;
12707;SDS011;6418;50.824;4.718;2022-07-05T06:40:10;14.60;;;6.70;;
12707;SDS011;6418;50.824;4.718;2022-07-05T06:42:37;13.47;;;6.23;;
12707;SDS011;6418;50.824;4.718;2022-07-05T06:45:06;22.73;;;6.60;;
12707;SDS011;6418;50.824;4.718;2022-07-05T06:47:34;13.53;;;6.10;;
12707;SDS011;6418;50.824;4.718;2022-07-05T06:50:02;13.53;;;5.60;;
12707;SDS011;6418;50.824;4.718;2022-07-05T06:52:30;15.83;;;5.63;;
12707;SDS011;6418;50.824;4.718;2022-07-05T06:54:57;14.50;;;5.87;;
12707;SDS011;6418;50.824;4.718;2022-07-05T06:57:24;10.63;;;5.43;;
12707;SDS011;6418;50.824;4.718;2022-07-05T06:59:52;10.67;;;5.63;;
12707;SDS011;6418;50.824;4.718;2022-07-05T07:02:21;11.17;;;5.00;;
12707;SDS011;6418;50.824;4.718;2022-07-05T07:04:48;11.37;;;5.30;;
12707;SDS011;6418;50.824;4.718;2022-07-05T07:07:15;10.30;;;4.90;;
12707;SDS011;6418;50.824;4.718;2022-07-05T07:09:58;10.60;;;4.60;;
12707;SDS011;6418;50.824;4.718;2022-07-05T07:12:26;8.60;;;4.37;;
12707;SDS011;6418;50.824;4.718;2022-07-05T07:14:54;8.73;;;4.47;;
12707;SDS011;6418;50.824;4.718;2022-07-05T07:17:22;10.73;;;4.70;;
12707;SDS011;6418;50.824;4.718;2022-07-05T07:19:49;11.30;;;4.60;;
12707;SDS011;6418;50.824;4.718;2022-07-05T07:22:16;12.67;;;4.93;;
12707;SDS011;6418;50.824;4.718;2022-07-05T07:24:43;9.60;;;4.47;;
12707;SDS011;6418;50.824;4.718;2022-07-05T07:27:10;13.00;;;5.07;;
12707;SDS011;6418;50.824;4.718;2022-07-05T07:29:38;10.30;;;4.30;;
12707;SDS011;6418;50.824;4.718;2022-07-05T07:32:06;11.60;;;4.80;;
12707;SDS011;6418;50.824;4.718;2022-07-05T07:34:35;11.00;;;4.77;;
12707;SDS011;6418;50.824;4.718;2022-07-05T07:37:03;11.67;;;4.80;;
12707;SDS011;6418;50.824;4.718;2022-07-05T07:39:31;9.93;;;4.40;;
12707;SDS011;6418;50.824;4.718;2022-07-05T07:41:58;11.00;;;4.50;;
12707;SDS011;6418;50.824;4.718;2022-07-05T07:44:25;10.73;;;4.73;;
12707;SDS011;6418;50.824;4.718;2022-07-05T07:46:52;11.87;;;5.00;;
12707;SDS011;6418;50.824;4.718;2022-07-05T07:49:19;10.17;;;4.90;;
12707;SDS011;6418;50.824;4.718;2022-07-05T07:51:47;12.57;;;5.00;;
12707;SDS011;6418;50.824;4.718;2022-07-05T07:54:14;12.03;;;5.13;;
12707;SDS011;6418;50.824;4.718;2022-07-05T07:56:41;10.63;;;4.80;;
12707;SDS011;6418;50.824;4.718;2022-07-05T07:59:09;11.13;;;4.57;;
12707;SDS011;6418;50.824;4.718;2022-07-05T08:01:36;11.70;;;5.00;;
12707;SDS011;6418;50.824;4.718;2022-07-05T08:04:04;12.60;;;5.23;;
12707;SDS011;6418;50.824;4.718;2022-07-05T08:06:31;11.43;;;4.93;;
12707;SDS011;6418;50.824;4.718;2022-07-05T08:08:59;11.53;;;4.87;;
12707;SDS011;6418;50.824;4.718;2022-07-05T08:11:26;10.63;;;4.97;;
12707;SDS011;6418;50.824;4.718;2022-07-05T08:13:53;10.07;;;4.47;;
12707;SDS011;6418;50.824;4.718;2022-07-05T08:16:20;11.43;;;4.97;;
12707;SDS011;6418;50.824;4.718;2022-07-05T08:18:47;12.00;;;4.73;;
12707;SDS011;6418;50.824;4.718;2022-07-05T08:21:31;10.40;;;4.70;;
12707;SDS011;6418;50.824;4.718;2022-07-05T08:24:02;7.20;;;4.10;;
12707;SDS011;6418;50.824;4.718;2022-07-05T08:26:30;13.03;;;4.70;;
12707;SDS011;6418;50.824;4.718;2022-07-05T08:28:58;9.27;;;4.60;;
12707;SDS011;6418;50.824;4.718;2022-07-05T08:31:26;7.57;;;4.20;;
12707;SDS011;6418;50.824;4.718;2022-07-05T08:33:55;11.03;;;4.67;;
12707;SDS011;6418;50.824;4.718;2022-07-05T08:36:22;11.03;;;4.23;;
12707;SDS011;6418;50.824;4.718;2022-07-05T08:38:49;12.50;;;4.73;;
12707;SDS011;6418;50.824;4.718;2022-07-05T08:41:18;8.53;;;4.30;;
12707;SDS011;6418;50.824;4.718;2022-07-05T08:43:47;11.87;;;4.50;;
12707;SDS011;6418;50.824;4.718;2022-07-05T08:46:18;10.33;;;4.73;;
12707;SDS011;6418;50.824;4.718;2022-07-05T08:48:46;8.57;;;4.10;;
12707;SDS011;6418;50.824;4.718;2022-07-05T08:51:15;9.77;;;4.20;;
12707;SDS011;6418;50.824;4.718;2022-07-05T08:53:46;13.47;;;4.40;;
12707;SDS011;6418;50.824;4.718;2022-07-05T08:56:14;11.07;;;5.13;;
12707;SDS011;6418;50.824;4.718;2022-07-05T08:58:43;12.27;;;4.40;;
12707;SDS011;6418;50.824;4.718;2022-07-05T09:01:11;9.87;;;4.90;;
12707;SDS011;6418;50.824;4.718;2022-07-05T09:03:39;10.17;;;4.33;;
12707;SDS011;6418;50.824;4.718;2022-07-05T09:06:10;9.70;;;4.23;;
12707;SDS011;6418;50.824;4.718;2022-07-05T09:08:39;12.10;;;4.40;;
12707;SDS011;6418;50.824;4.718;2022-07-05T09:11:07;9.90;;;4.30;;
12707;SDS011;6418;50.824;4.718;2022-07-05T09:13:35;8.93;;;4.10;;
12707;SDS011;6418;50.824;4.718;2022-07-05T09:16:05;10.70;;;4.10;;
12707;SDS011;6418;50.824;4.718;2022-07-05T09:18:39;7.95;;;4.38;;
12707;SDS011;6418;50.824;4.718;2022-07-05T09:21:17;7.15;;;4.30;;
12707;SDS011;6418;50.824;4.718;2022-07-05T09:23:45;12.50;;;4.50;;
12707;SDS011;6418;50.824;4.718;2022-07-05T09:26:19;13.50;;;4.70;;
12707;SDS011;6418;50.824;4.718;2022-07-05T09:28:55;10.63;;;4.97;;
12707;SDS011;6418;50.824;4.718;2022-07-05T09:31:28;9.57;;;4.57;;
12707;SDS011;6418;50.824;4.718;2022-07-05T09:34:04;10.13;;;4.25;;
12707;SDS011;6418;50.824;4.718;2022-07-05T09:36:48;9.90;;;4.38;;
12707;SDS011;6418;50.824;4.718;2022-07-05T09:39:16;9.65;;;4.28;;
12707;SDS011;6418;50.824;4.718;2022-07-05T09:41:44;10.07;;;4.10;;
12707;SDS011;6418;50.824;4.718;2022-07-05T09:44:10;12.48;;;4.45;;
12707;SDS011;6418;50.824;4.718;2022-07-05T09:46:51;7.18;;;4.00;;
12707;SDS011;6418;50.824;4.718;2022-07-05T09:49:35;9.77;;;3.42;;
12707;SDS011;6418;50.824;4.718;2022-07-05T09:52:02;7.95;;;4.10;;
12707;SDS011;6418;50.824;4.718;2022-07-05T09:54:29;7.63;;;3.83;;
12707;SDS011;6418;50.824;4.718;2022-07-05T09:56:56;7.15;;;3.40;;
12707;SDS011;6418;50.824;4.718;2022-07-05T09:59:23;8.57;;;3.70;;
12707;SDS011;6418;50.824;4.718;2022-07-05T10:01:52;8.32;;;3.60;;
12707;SDS011;6418;50.824;4.718;2022-07-05T10:04:19;10.27;;;3.78;;
12707;SDS011;6418;50.824;4.718;2022-07-05T10:06:46;7.85;;;3.72;;
12707;SDS011;6418;50.824;4.718;2022-07-05T10:09:13;10.40;;;3.67;;
12707;SDS011;6418;50.824;4.718;2022-07-05T10:11:41;7.60;;;3.78;;
12707;SDS011;6418;50.824;4.718;2022-07-05T10:14:15;7.35;;;3.58;;
12707;SDS011;6418;50.824;4.718;2022-07-05T10:16:45;7.47;;;3.08;;
12707;SDS011;6418;50.824;4.718;2022-07-05T10:19:19;11.27;;;3.72;;
12707;SDS011;6418;50.824;4.718;2022-07-05T10:21:47;8.95;;;3.85;;
12707;SDS011;6418;50.824;4.718;2022-07-05T10:24:16;11.25;;;3.90;;
12707;SDS011;6418;50.824;4.718;2022-07-05T10:26:43;8.20;;;3.28;;
12707;SDS011;6418;50.824;4.718;2022-07-05T10:29:12;6.60;;;3.50;;
12707;SDS011;6418;50.824;4.718;2022-07-05T10:31:40;7.60;;;3.45;;
12707;SDS011;6418;50.824;4.718;2022-07-05T10:34:09;7.13;;;3.70;;
12707;SDS011;6418;50.824;4.718;2022-07-05T10:36:37;10.77;;;3.85;;
12707;SDS011;6418;50.824;4.718;2022-07-05T10:39:06;10.65;;;4.03;;
12707;SDS011;6418;50.824;4.718;2022-07-05T10:41:35;9.70;;;3.83;;
12707;SDS011;6418;50.824;4.718;2022-07-05T10:44:05;9.55;;;4.10;;
12707;SDS011;6418;50.824;4.718;2022-07-05T10:46:35;6.65;;;3.47;;
12707;SDS011;6418;50.824;4.718;2022-07-05T10:49:10;11.60;;;4.00;;
12707;SDS011;6418;50.824;4.718;2022-07-05T10:51:39;7.25;;;3.42;;
12707;SDS011;6418;50.824;4.718;2022-07-05T10:54:08;10.57;;;3.90;;
12707;SDS011;6418;50.824;4.718;2022-07-05T10:56:36;5.70;;;3.40;;
12707;SDS011;6418;50.824;4.718;2022-07-05T10:59:04;8.30;;;4.00;;
12707;SDS011;6418;50.824;4.718;2022-07-05T11:01:34;7.22;;;3.95;;
12707;SDS011;6418;50.824;4.718;2022-07-05T11:04:23;9.80;;;3.47;;
12707;SDS011;6418;50.824;4.718;2022-07-05T11:06:59;8.98;;;3.70;;
12707;SDS011;6418;50.824;4.718;2022-07-05T11:09:27;9.50;;;3.60;;
12707;SDS011;6418;50.824;4.718;2022-07-05T11:12:04;8.57;;;3.83;;
12707;SDS011;6418;50.824;4.718;2022-07-05T11:14:33;8.15;;;3.85;;
12707;SDS011;6418;50.824;4.718;2022-07-05T11:17:14;8.85;;;3.97;;
12707;SDS011;6418;50.824;4.718;2022-07-05T11:20:05;9.70;;;4.10;;
12707;SDS011;6418;50.824;4.718;2022-07-05T11:22:38;8.77;;;3.80;;
12707;SDS011;6418;50.824;4.718;2022-07-05T11:25:07;10.25;;;4.22;;
12707;SDS011;6418;50.824;4.718;2022-07-05T11:27:36;9.32;;;4.28;;
12707;SDS011;6418;50.824;4.718;2022-07-05T11:30:31;8.35;;;3.90;;
12707;SDS011;6418;50.824;4.718;2022-07-05T11:33:27;10.00;;;3.90;;
12707;SDS011;6418;50.824;4.718;2022-07-05T11:35:59;10.57;;;4.13;;
12707;SDS011;6418;50.824;4.718;2022-07-05T11:38:28;9.63;;;4.22;;
12707;SDS011;6418;50.824;4.718;2022-07-05T11:40:55;10.00;;;4.10;;
12707;SDS011;6418;50.824;4.718;2022-07-05T11:43:36;12.70;;;4.35;;
12707;SDS011;6418;50.824;4.718;2022-07-05T11:46:03;7.88;;;3.83;;
12707;SDS011;6418;50.824;4.718;2022-07-05T11:48:30;9.60;;;4.32;;
12707;SDS011;6418;50.824;4.718;2022-07-05T11:50:57;9.38;;;4.10;;
12707;SDS011;6418;50.824;4.718;2022-07-05T11:53:39;10.05;;;4.40;;
12707;SDS011;6418;50.824;4.718;2022-07-05T11:56:07;8.10;;;4.20;;
12707;SDS011;6418;50.824;4.718;2022-07-05T11:58:35;11.45;;;4.97;;
12707;SDS011;6418;50.824;4.718;2022-07-05T12:01:02;10.70;;;4.40;;
12707;SDS011;6418;50.824;4.718;2022-07-05T12:03:30;9.38;;;4.70;;
12707;SDS011;6418;50.824;4.718;2022-07-05T12:05:57;9.88;;;4.43;;
12707;SDS011;6418;50.824;4.718;2022-07-05T12:08:24;10.45;;;4.35;;
12707;SDS011;6418;50.824;4.718;2022-07-05T12:10:53;10.70;;;4.53;;
12707;SDS011;6418;50.824;4.718;2022-07-05T12:13:44;15.10;;;4.13;;
12707;SDS011;6418;50.824;4.718;2022-07-05T12:16:12;12.32;;;4.50;;
12707;SDS011;6418;50.824;4.718;2022-07-05T12:18:46;7.50;;;4.10;;
12707;SDS011;6418;50.824;4.718;2022-07-05T12:21:14;10.30;;;3.80;;
12707;SDS011;6418;50.824;4.718;2022-07-05T12:23:41;9.23;;;3.92;;
12707;SDS011;6418;50.824;4.718;2022-07-05T12:26:10;8.18;;;3.80;;
12707;SDS011;6418;50.824;4.718;2022-07-05T12:28:38;8.05;;;4.05;;
12707;SDS011;6418;50.824;4.718;2022-07-05T12:31:16;11.82;;;4.10;;
12707;SDS011;6418;50.824;4.718;2022-07-05T12:33:43;8.90;;;3.80;;
12707;SDS011;6418;50.824;4.718;2022-07-05T12:36:10;9.75;;;3.80;;
12707;SDS011;6418;50.824;4.718;2022-07-05T12:38:38;7.25;;;3.75;;
12707;SDS011;6418;50.824;4.718;2022-07-05T12:41:05;8.20;;;3.80;;
12707;SDS011;6418;50.824;4.718;2022-07-05T12:43:35;10.25;;;4.00;;
12707;SDS011;6418;50.824;4.718;2022-07-05T12:46:14;10.02;;;3.70;;
12707;SDS011;6418;50.824;4.718;2022-07-05T12:48:41;9.13;;;3.83;;
12707;SDS011;6418;50.824;4.718;2022-07-05T12:51:09;9.27;;;3.60;;
12707;SDS011;6418;50.824;4.718;2022-07-05T12:53:43;10.88;;;3.80;;
12707;SDS011;6418;50.824;4.718;2022-07-05T12:56:46;11.10;;;3.72;;
12707;SDS011;6418;50.824;4.718;2022-07-05T12:59:38;11.32;;;3.45;;
12707;SDS011;6418;50.824;4.718;2022-07-05T13:02:05;9.80;;;3.65;;
12707;SDS011;6418;50.824;4.718;2022-07-05T13:04:33;14.55;;;4.18;;
12707;SDS011;6418;50.824;4.718;2022-07-05T13:07:00;7.78;;;3.67;;
12707;SDS011;6418;50.824;4.718;2022-07-05T13:09:32;8.13;;;3.80;;
12707;SDS011;6418;50.824;4.718;2022-07-05T13:12:07;9.35;;;3.83;;
12707;SDS011;6418;50.824;4.718;2022-07-05T13:14:36;8.30;;;3.65;;
12707;SDS011;6418;50.824;4.718;2022-07-05T13:17:06;7.55;;;3.80;;
12707;SDS011;6418;50.824;4.718;2022-07-05T13:19:33;10.02;;;4.25;;
12707;SDS011;6418;50.824;4.718;2022-07-05T13:22:01;7.93;;;4.00;;
12707;SDS011;6418;50.824;4.718;2022-07-05T13:24:28;11.65;;;4.50;;
12707;SDS011;6418;50.824;4.718;2022-07-05T13:26:55;10.27;;;4.30;;
12707;SDS011;6418;50.824;4.718;2022-07-05T13:29:23;10.35;;;4.80;;
12707;SDS011;6418;50.824;4.718;2022-07-05T13:31:51;11.70;;;4.60;;
12707;SDS011;6418;50.824;4.718;2022-07-05T13:34:18;12.68;;;5.28;;
12707;SDS011;6418;50.824;4.718;2022-07-05T13:36:48;10.90;;;4.50;;
12707;SDS011;6418;50.824;4.718;2022-07-05T13:39:15;11.68;;;4.90;;
12707;SDS011;6418;50.824;4.718;2022-07-05T13:41:42;10.68;;;4.40;;
12707;SDS011;6418;50.824;4.718;2022-07-05T13:44:09;11.25;;;4.55;;
12707;SDS011;6418;50.824;4.718;2022-07-05T13:46:36;9.90;;;4.30;;
12707;SDS011;6418;50.824;4.718;2022-07-05T13:49:04;9.07;;;4.00;;
12707;SDS011;6418;50.824;4.718;2022-07-05T13:51:31;10.75;;;4.30;;
12707;SDS011;6418;50.824;4.718;2022-07-05T13:53:58;11.00;;;4.20;;
12707;SDS011;6418;50.824;4.718;2022-07-05T13:56:25;9.70;;;4.00;;
12707;SDS011;6418;50.824;4.718;2022-07-05T13:58:53;9.70;;;4.10;;
12707;SDS011;6418;50.824;4.718;2022-07-05T14:01:20;9.68;;;4.00;;
12707;SDS011;6418;50.824;4.718;2022-07-05T14:03:51;9.35;;;3.72;;
12707;SDS011;6418;50.824;4.718;2022-07-05T14:06:19;6.60;;;3.42;;
12707;SDS011;6418;50.824;4.718;2022-07-05T14:08:46;6.72;;;3.90;;
12707;SDS011;6418;50.824;4.718;2022-07-05T14:11:13;8.90;;;4.13;;
12707;SDS011;6418;50.824;4.718;2022-07-05T14:13:40;7.63;;;4.18;;
12707;SDS011;6418;50.824;4.718;2022-07-05T14:16:08;9.77;;;4.20;;
12707;SDS011;6418;50.824;4.718;2022-07-05T14:18:35;9.02;;;3.70;;
12707;SDS011;6418;50.824;4.718;2022-07-05T14:21:02;6.88;;;4.00;;
12707;SDS011;6418;50.824;4.718;2022-07-05T14:23:31;10.02;;;3.60;;
12707;SDS011;6418;50.824;4.718;2022-07-05T14:25:58;6.97;;;3.42;;
12707;SDS011;6418;50.824;4.718;2022-07-05T14:28:25;6.28;;;3.33;;
12707;SDS011;6418;50.824;4.718;2022-07-05T14:30:52;6.55;;;3.40;;
12707;SDS011;6418;50.824;4.718;2022-07-05T14:33:19;8.27;;;3.63;;
12707;SDS011;6418;50.824;4.718;2022-07-05T14:35:46;5.90;;;3.30;;
12707;SDS011;6418;50.824;4.718;2022-07-05T14:38:13;7.88;;;3.33;;
12707;SDS011;6418;50.824;4.718;2022-07-05T14:40:42;8.75;;;3.63;;
12707;SDS011;6418;50.824;4.718;2022-07-05T14:43:09;9.70;;;3.40;;
12707;SDS011;6418;50.824;4.718;2022-07-05T14:45:36;7.30;;;3.42;;
12707;SDS011;6418;50.824;4.718;2022-07-05T14:48:03;9.27;;;3.45;;
12707;SDS011;6418;50.824;4.718;2022-07-05T14:50:30;6.63;;;3.40;;
12707;SDS011;6418;50.824;4.718;2022-07-05T14:52:57;6.05;;;3.08;;
12707;SDS011;6418;50.824;4.718;2022-07-05T14:55:30;8.52;;;3.40;;
12707;SDS011;6418;50.824;4.718;2022-07-05T14:57:59;6.35;;;3.13;;
12707;SDS011;6418;50.824;4.718;2022-07-05T15:00:26;6.82;;;3.17;;
12707;SDS011;6418;50.824;4.718;2022-07-05T15:02:52;6.45;;;2.85;;
12707;SDS011;6418;50.824;4.718;2022-07-05T15:05:19;8.38;;;3.13;;